createdAt,value
2023-02-12T00:01:24.110Z,83.60
2023-02-12T00:03:52.429Z,85.70
2023-02-12T00:06:20.677Z,77.80
2023-02-12T00:08:54.303Z,82.00
2023-02-12T00:11:28.591Z,79.50
2023-02-12T00:13:58.327Z,81.90
2023-02-12T00:16:28.977Z,79.70
2023-02-12T00:18:58.737Z,83.20
2023-02-12T00:21:29.086Z,81.60
2023-02-12T00:23:57.880Z,84.20
2023-02-12T00:26:25.968Z,80.40
2023-02-12T00:28:55.063Z,80.00
2023-02-12T00:31:26.763Z,82.20
2023-02-12T00:33:59.535Z,78.20
2023-02-12T00:36:30.549Z,80.10
2023-02-12T00:39:00.243Z,78.30
2023-02-12T00:41:28.397Z,81.90
2023-02-12T00:43:57.025Z,75.10
2023-02-12T00:46:25.131Z,75.20
2023-02-12T00:48:53.378Z,78.10
2023-02-12T00:51:21.962Z,76.50
2023-02-12T00:53:52.599Z,77.80
2023-02-12T00:56:20.575Z,76.20
2023-02-12T00:58:51.020Z,78.40
2023-02-12T01:01:19.364Z,76.70
2023-02-12T01:03:47.679Z,75.10
2023-02-12T01:06:15.959Z,75.10
2023-02-12T01:08:44.131Z,78.20
2023-02-12T01:11:13.867Z,73.60
2023-02-12T01:13:42.131Z,68.90
2023-02-12T01:16:19.121Z,74.40
2023-02-12T01:18:48.108Z,74.70
2023-02-12T01:21:22.634Z,75.90
2023-02-12T01:23:51.452Z,70.40
2023-02-12T01:26:21.862Z,76.10
2023-02-12T01:28:55.261Z,72.10
2023-02-12T01:31:26.701Z,75.00
2023-02-12T01:33:57.028Z,72.30
2023-02-12T01:36:26.245Z,74.00
2023-02-12T01:38:55.543Z,76.30
2023-02-12T01:41:27.307Z,72.20
2023-02-12T01:44:19.417Z,75.00
2023-02-12T01:46:50.770Z,69.80
2023-02-12T01:49:25.928Z,72.30
2023-02-12T01:52:05.044Z,66.90
2023-02-12T01:54:35.370Z,70.00
2023-02-12T01:57:05.830Z,68.80
2023-02-12T01:59:36.693Z,74.30
2023-02-12T02:02:05.882Z,67.40
2023-02-12T02:04:50.796Z,73.30
2023-02-12T02:07:19.083Z,71.70
2023-02-12T02:09:47.887Z,71.70
2023-02-12T02:12:34.799Z,71.40
2023-02-12T02:15:04.792Z,70.60
2023-02-12T02:17:56.411Z,76.40
2023-02-12T02:20:46.388Z,71.70
2023-02-12T02:23:49.971Z,75.50
2023-02-12T02:26:32.979Z,73.90
2023-02-12T02:29:19.691Z,70.50
2023-02-12T02:31:55.103Z,70.80
2023-02-12T02:34:34.670Z,70.50
2023-02-12T02:37:37.444Z,74.30
2023-02-12T02:40:19.942Z,74.40
2023-02-12T02:42:52.616Z,76.50
2023-02-12T02:45:35.642Z,74.50
2023-02-12T02:48:06.479Z,71.40
2023-02-12T02:50:38.752Z,73.30
2023-02-12T02:53:19.620Z,78.00
2023-02-12T02:55:54.802Z,77.60
2023-02-12T02:58:28.839Z,77.40
2023-02-12T03:01:08.530Z,69.50
2023-02-12T03:04:12.914Z,79.50
2023-02-12T03:06:55.718Z,71.40
2023-02-12T03:09:39.051Z,72.40
2023-02-12T03:12:37.736Z,77.00
2023-02-12T03:15:15.236Z,72.80
2023-02-12T03:17:49.514Z,71.10
2023-02-12T03:20:24.577Z,76.80
2023-02-12T03:22:58.177Z,68.10
2023-02-12T03:25:34.027Z,71.40
2023-02-12T03:30:42.981Z,64.90
2023-02-12T03:33:32.437Z,70.20
2023-02-12T03:36:07.066Z,68.80
2023-02-12T03:38:47.211Z,76.00
2023-02-12T03:41:28.083Z,66.20
2023-02-12T03:44:05.992Z,65.90
2023-02-12T03:47:07.316Z,80.50
2023-02-12T03:49:47.370Z,68.50
2023-02-12T03:52:15.434Z,66.50
2023-02-12T03:54:43.497Z,66.10
2023-02-12T03:57:16.274Z,66.60
2023-02-12T03:59:45.096Z,65.00
2023-02-12T04:02:15.295Z,70.20
2023-02-12T04:04:44.972Z,61.90
2023-02-12T04:07:13.918Z,65.80
2023-02-12T04:09:41.993Z,68.20
2023-02-12T04:12:28.595Z,68.30
2023-02-12T04:15:08.782Z,66.90
2023-02-12T04:18:20.734Z,61.90
2023-02-12T04:21:13.873Z,62.20
2023-02-12T04:23:59.761Z,60.30
2023-02-12T04:26:52.516Z,63.30
2023-02-12T04:29:37.258Z,60.30
2023-02-12T04:32:12.828Z,63.00
2023-02-12T04:37:35.646Z,56.20
2023-02-12T04:40:08.050Z,60.20
2023-02-12T04:42:47.568Z,58.70
2023-02-12T04:45:21.177Z,64.20
2023-02-12T04:47:49.457Z,64.70
2023-02-12T04:50:17.978Z,63.80
2023-02-12T04:52:46.540Z,66.10
2023-02-12T04:55:15.123Z,61.90
2023-02-12T04:57:43.401Z,62.40
2023-02-12T05:00:14.263Z,63.30
2023-02-12T05:02:42.330Z,65.30
2023-02-12T05:05:10.570Z,64.10
2023-02-12T05:07:38.876Z,59.90
2023-02-12T05:10:07.911Z,59.70
2023-02-12T05:12:35.927Z,63.40
2023-02-12T05:15:04.435Z,61.90
2023-02-12T05:17:32.514Z,58.40
2023-02-12T05:20:00.694Z,59.80
2023-02-12T05:22:28.970Z,61.30
2023-02-12T05:24:57.253Z,62.60
2023-02-12T05:27:25.343Z,61.40
2023-02-12T05:29:53.529Z,58.20
2023-02-12T05:32:21.582Z,61.10
2023-02-12T05:34:49.862Z,62.80
2023-02-12T05:37:17.948Z,60.50
2023-02-12T05:39:46.016Z,58.50
2023-02-12T05:42:14.193Z,59.60
2023-02-12T05:44:42.273Z,67.10
2023-02-12T05:47:11.063Z,60.00
2023-02-12T05:49:39.147Z,63.30
2023-02-12T05:52:07.208Z,58.20
2023-02-12T05:54:35.294Z,60.40
2023-02-12T05:57:03.295Z,59.20
2023-02-12T05:59:31.544Z,61.20
2023-02-12T06:01:59.560Z,63.50
2023-02-12T06:04:29.252Z,59.20
2023-02-12T06:06:57.510Z,60.90
2023-02-12T06:09:25.635Z,62.70
2023-02-12T06:11:53.864Z,60.10
2023-02-12T06:14:22.052Z,52.40
2023-02-12T06:16:51.977Z,60.10
2023-02-12T06:19:20.562Z,57.60
2023-02-12T06:21:48.724Z,61.70
2023-02-12T06:24:17.442Z,58.70
2023-02-12T06:26:46.225Z,61.00
2023-02-12T06:29:14.603Z,57.50
2023-02-12T06:31:43.245Z,62.70
2023-02-12T06:34:13.721Z,58.40
2023-02-12T06:36:44.766Z,63.00
2023-02-12T06:39:15.611Z,63.40
2023-02-12T06:41:44.295Z,61.60
2023-02-12T06:44:13.198Z,63.70
2023-02-12T06:46:41.188Z,62.10
2023-02-12T06:49:12.628Z,64.90
2023-02-12T06:51:41.639Z,63.70
2023-02-12T06:54:15.089Z,62.40
2023-02-12T06:56:43.396Z,68.00
2023-02-12T06:59:15.470Z,65.00
2023-02-12T07:01:44.060Z,66.40
2023-02-12T07:04:12.614Z,67.00
2023-02-12T07:06:41.019Z,66.40
2023-02-12T07:09:09.032Z,69.50
2023-02-12T07:11:38.719Z,68.40
2023-02-12T07:14:08.020Z,70.60
2023-02-12T07:16:36.113Z,68.40
2023-02-12T07:19:04.289Z,75.80
2023-02-12T07:21:32.346Z,77.10
2023-02-12T07:24:00.461Z,73.80
2023-02-12T07:26:29.004Z,74.80
2023-02-12T07:28:58.841Z,79.70
2023-02-12T07:31:27.134Z,77.70
2023-02-12T07:33:57.044Z,80.10
2023-02-12T07:36:27.529Z,83.10
2023-02-12T07:38:57.070Z,77.70
2023-02-12T07:41:28.737Z,79.00
2023-02-12T07:43:59.349Z,74.30
2023-02-12T07:46:30.819Z,81.70
2023-02-12T07:49:01.194Z,73.70
2023-02-12T07:51:29.412Z,72.90
2023-02-12T07:53:57.501Z,75.20
2023-02-12T07:56:32.608Z,77.70
2023-02-12T07:59:03.148Z,77.60
2023-02-12T08:01:37.023Z,78.80
2023-02-12T08:04:08.593Z,75.90
2023-02-12T08:06:40.503Z,79.30
2023-02-12T08:09:10.850Z,72.40
2023-02-12T08:11:41.949Z,71.90
2023-02-12T08:14:15.476Z,73.30
2023-02-12T08:16:45.296Z,72.70
2023-02-12T08:19:20.212Z,76.60
2023-02-12T08:21:53.727Z,77.70
2023-02-12T08:24:22.608Z,74.10
2023-02-12T08:26:51.608Z,84.10
2023-02-12T08:29:22.909Z,77.60
2023-02-12T08:31:56.614Z,81.00
2023-02-12T08:34:27.639Z,82.10
2023-02-12T08:36:56.432Z,84.10
2023-02-12T08:39:26.634Z,82.70
2023-02-12T08:41:56.139Z,71.80
2023-02-12T08:44:27.084Z,70.60
2023-02-12T08:46:58.091Z,82.10
2023-02-12T08:49:29.179Z,71.90
2023-02-12T08:52:01.853Z,77.10
2023-02-12T08:54:31.652Z,75.70
2023-02-12T08:57:02.606Z,74.20
2023-02-12T08:59:31.304Z,80.40
2023-02-12T09:02:00.773Z,85.40
2023-02-12T09:04:30.038Z,83.70
2023-02-12T09:06:58.276Z,82.60
2023-02-12T09:09:26.367Z,80.80
2023-02-12T09:11:54.632Z,84.20
2023-02-12T09:14:25.570Z,85.90
2023-02-12T09:16:54.818Z,78.60
2023-02-12T09:19:23.445Z,80.20
2023-02-12T09:21:55.562Z,77.40
2023-02-12T09:24:28.126Z,83.60
2023-02-12T09:26:57.614Z,79.00
2023-02-12T09:29:25.630Z,75.30
2023-02-12T09:31:53.855Z,78.40
2023-02-12T09:34:22.062Z,75.80
2023-02-12T09:36:50.229Z,76.80
2023-02-12T09:39:18.322Z,79.00
2023-02-12T09:42:05.919Z,80.40
2023-02-12T09:45:02.782Z,82.00
2023-02-12T09:47:39.028Z,74.10
2023-02-12T09:50:19.274Z,75.60
2023-02-12T09:52:48.689Z,81.20
2023-02-12T09:55:19.098Z,77.30
2023-02-12T09:57:47.612Z,75.10
2023-02-12T10:00:22.037Z,73.30
2023-02-12T10:02:53.075Z,69.60
2023-02-12T10:05:35.217Z,71.10
2023-02-12T10:08:15.645Z,75.90
2023-02-12T10:10:53.448Z,67.20
2023-02-12T10:14:01.462Z,70.00
2023-02-12T10:16:47.807Z,69.60
2023-02-12T10:22:13.647Z,62.70
2023-02-12T10:25:19.176Z,68.80
2023-02-12T10:27:51.360Z,64.80
2023-02-12T10:30:25.664Z,70.30
2023-02-12T10:33:04.555Z,69.30
2023-02-12T10:35:34.798Z,67.30
2023-02-12T10:38:14.957Z,63.10
2023-02-12T10:40:45.380Z,68.10
2023-02-12T10:43:14.204Z,61.90
2023-02-12T10:45:44.638Z,63.30
2023-02-12T10:48:20.757Z,65.30
2023-02-12T10:51:04.703Z,61.90
2023-02-12T10:53:36.152Z,63.10
2023-02-12T10:56:09.033Z,59.80
2023-02-12T10:58:39.360Z,58.10
2023-02-12T11:01:36.149Z,58.20
2023-02-12T11:04:26.480Z,55.20
2023-02-12T11:07:04.385Z,58.30
2023-02-12T11:09:40.868Z,50.00
2023-02-12T11:12:17.844Z,50.90
2023-02-12T11:14:58.416Z,52.80
2023-02-12T11:17:38.653Z,49.80
2023-02-12T11:20:16.234Z,52.10
2023-02-12T11:23:02.624Z,52.80
2023-02-12T11:25:36.117Z,52.70
2023-02-12T11:28:18.036Z,49.90
2023-02-12T11:30:57.099Z,50.20
2023-02-12T11:33:29.414Z,46.90
2023-02-12T11:36:06.771Z,50.20
2023-02-12T11:38:39.248Z,45.10
2023-02-12T11:41:24.763Z,46.90
2023-02-12T11:43:53.549Z,46.10
2023-02-12T11:46:25.736Z,44.70
2023-02-12T11:48:57.293Z,50.70
2023-02-12T11:51:29.462Z,46.30
2023-02-12T11:54:03.794Z,43.90
2023-02-12T11:56:48.320Z,43.10
2023-02-12T11:59:30.234Z,43.50
2023-02-12T12:02:04.542Z,47.10
2023-02-12T12:04:35.895Z,42.10
2023-02-12T12:07:16.743Z,42.00
2023-02-12T12:09:56.483Z,44.30
2023-02-12T12:12:37.762Z,38.70
2023-02-12T12:15:29.886Z,38.30
2023-02-12T12:18:43.798Z,42.30
2023-02-12T12:21:16.210Z,41.30
2023-02-12T12:23:59.818Z,39.00
2023-02-12T12:26:34.528Z,39.30
2023-02-12T12:29:16.952Z,37.50
2023-02-12T12:31:48.337Z,39.40
2023-02-12T12:34:23.890Z,39.80
2023-02-12T12:37:17.712Z,38.40
2023-02-12T12:39:55.198Z,38.50
2023-02-12T12:42:45.687Z,36.70
2023-02-12T12:45:32.971Z,38.20
2023-02-12T12:48:24.305Z,37.90
2023-02-12T12:51:10.402Z,39.10
2023-02-12T12:53:54.972Z,35.20
2023-02-12T12:56:54.845Z,37.80
2023-02-12T12:59:51.173Z,40.80
2023-02-12T13:02:28.456Z,38.20
2023-02-12T13:05:21.689Z,35.30
2023-02-12T13:08:01.786Z,40.10
2023-02-12T13:10:39.147Z,41.50
2023-02-12T13:13:31.990Z,42.70
2023-02-12T13:16:15.224Z,37.10
2023-02-12T13:18:59.217Z,40.00
2023-02-12T13:22:08.870Z,37.20
2023-02-12T13:24:58.335Z,36.60
2023-02-12T13:27:37.002Z,39.10
2023-02-12T13:30:18.134Z,39.20
2023-02-12T13:32:59.413Z,37.80
2023-02-12T13:35:30.349Z,41.70
2023-02-12T13:38:00.576Z,39.00
2023-02-12T13:40:31.727Z,41.50
2023-02-12T13:43:32.138Z,39.20
2023-02-12T13:46:25.396Z,40.60
2023-02-12T13:49:21.699Z,42.20
2023-02-12T13:52:17.408Z,36.40
2023-02-12T13:54:49.167Z,36.70
2023-02-12T13:57:19.902Z,42.50
2023-02-12T13:59:50.564Z,40.60
2023-02-12T14:02:33.817Z,39.90
2023-02-12T14:05:14.669Z,40.60
2023-02-12T14:07:46.750Z,41.20
2023-02-12T14:10:22.812Z,41.00
2023-02-12T14:12:59.534Z,41.10
2023-02-12T14:15:41.448Z,38.40
2023-02-12T14:18:32.011Z,41.00
2023-02-12T14:21:28.745Z,41.50
2023-02-12T14:24:35.625Z,36.00
2023-02-12T14:27:29.981Z,36.80
2023-02-12T14:30:12.076Z,38.60
2023-02-12T14:32:46.299Z,38.00
2023-02-12T14:35:45.885Z,34.80
2023-02-12T14:38:16.738Z,36.60
2023-02-12T14:40:52.671Z,37.60
2023-02-12T14:44:02.105Z,34.30
2023-02-12T14:46:43.744Z,36.20
2023-02-12T14:49:25.160Z,39.10
2023-02-12T14:52:14.833Z,39.20
2023-02-12T14:54:50.064Z,36.50
2023-02-12T14:57:32.288Z,36.90
2023-02-12T15:00:25.702Z,38.10
2023-02-12T15:03:13.965Z,33.10
2023-02-12T15:06:07.619Z,37.00
2023-02-12T15:08:45.417Z,36.90
2023-02-12T15:11:21.590Z,32.10
2023-02-12T15:14:02.873Z,36.10
2023-02-12T15:16:38.091Z,34.00
2023-02-12T15:19:16.718Z,30.40
2023-02-12T15:21:46.312Z,33.50
2023-02-12T15:24:23.479Z,32.60
2023-02-12T15:26:58.965Z,36.60
2023-02-12T15:29:45.454Z,37.60
2023-02-12T15:32:23.357Z,36.40
2023-02-12T15:34:52.550Z,33.30
2023-02-12T15:37:27.330Z,32.50
2023-02-12T15:40:00.154Z,31.80
2023-02-12T15:42:28.250Z,34.30
2023-02-12T15:45:17.928Z,33.60
2023-02-12T15:47:57.234Z,32.40
2023-02-12T15:50:26.341Z,34.30
2023-02-12T15:52:56.259Z,33.70
2023-02-12T15:55:28.501Z,34.50
2023-02-12T15:57:59.793Z,33.20
2023-02-12T16:00:33.713Z,32.70
2023-02-12T16:03:01.673Z,32.40
2023-02-12T16:05:32.597Z,34.80
2023-02-12T16:08:02.543Z,31.80
2023-02-12T16:10:31.223Z,33.60
2023-02-12T16:13:00.627Z,35.90
2023-02-12T16:15:32.486Z,35.00
2023-02-12T16:18:04.256Z,38.00
2023-02-12T16:20:32.553Z,36.40
2023-02-12T16:23:06.443Z,39.00
2023-02-12T16:25:35.425Z,63.10
2023-02-12T16:28:05.218Z,76.20
2023-02-12T16:30:38.840Z,90.80
2023-02-12T16:33:45.010Z,111.10
2023-02-12T16:36:30.557Z,134.70
2023-02-12T16:39:08.479Z,168.90
2023-02-12T16:41:55.698Z,193.10
2023-02-12T16:44:31.108Z,196.60
2023-02-12T16:47:01.654Z,207.60
2023-02-12T16:49:29.948Z,222.20
2023-02-12T16:52:27.168Z,233.40
2023-02-12T16:54:55.095Z,244.90
2023-02-12T16:57:23.132Z,261.00
2023-02-12T16:59:51.237Z,253.60
2023-02-12T17:02:19.895Z,250.20
2023-02-12T17:04:47.979Z,245.00
2023-02-12T17:07:20.344Z,246.10
2023-02-12T17:09:49.245Z,234.80
2023-02-12T17:12:17.762Z,231.40
2023-02-12T17:14:46.219Z,237.70
2023-02-12T17:17:14.607Z,224.30
2023-02-12T17:19:42.781Z,223.70
2023-02-12T17:22:26.402Z,216.60
2023-02-12T17:24:54.901Z,214.10
2023-02-12T17:27:23.186Z,200.00
2023-02-12T17:29:51.383Z,198.00
2023-02-12T17:32:19.595Z,196.60
2023-02-12T17:34:48.943Z,193.30
2023-02-12T17:37:18.430Z,178.50
2023-02-12T17:39:46.842Z,180.40
2023-02-12T17:42:15.021Z,164.40
2023-02-12T17:44:43.200Z,165.00
2023-02-12T17:47:11.377Z,154.10
2023-02-12T17:49:40.167Z,148.30
2023-02-12T17:52:08.664Z,150.30
2023-02-12T17:54:37.343Z,142.80
2023-02-12T17:57:05.427Z,134.30
2023-02-12T17:59:33.490Z,136.30
2023-02-12T18:02:01.979Z,135.40
2023-02-12T18:04:35.871Z,126.80
2023-02-12T18:07:05.298Z,121.30
2023-02-12T18:09:33.375Z,116.00
2023-02-12T18:12:01.563Z,115.20
2023-02-12T18:14:30.141Z,120.90
2023-02-12T18:16:58.959Z,117.60
2023-02-12T18:19:29.264Z,112.10
2023-02-12T18:21:57.433Z,106.20
2023-02-12T18:24:25.518Z,101.20
2023-02-12T18:26:53.595Z,104.40
2023-02-12T18:29:21.663Z,102.60
2023-02-12T18:31:49.765Z,98.60
2023-02-12T18:34:18.120Z,94.40
2023-02-12T18:36:46.374Z,90.70
2023-02-12T18:39:14.489Z,87.00
2023-02-12T18:41:43.477Z,83.90
2023-02-12T18:44:11.565Z,80.90
2023-02-12T18:46:40.348Z,82.70
2023-02-12T18:49:10.365Z,83.20
2023-02-12T18:51:41.216Z,79.20
2023-02-12T18:54:12.844Z,77.70
2023-02-12T18:56:43.854Z,81.20
2023-02-12T18:59:14.128Z,79.30
2023-02-12T19:01:43.485Z,73.70
2023-02-12T19:04:16.767Z,71.20
2023-02-12T19:06:48.811Z,67.50
2023-02-12T19:09:20.511Z,68.90
2023-02-12T19:11:50.186Z,68.60
2023-02-12T19:14:21.115Z,69.90
2023-02-12T19:16:50.422Z,63.70
2023-02-12T19:19:21.196Z,68.40
2023-02-12T19:21:49.946Z,73.00
2023-02-12T19:24:18.640Z,63.60
2023-02-12T19:26:50.602Z,62.10
2023-02-12T19:29:19.093Z,62.50
2023-02-12T19:31:47.735Z,61.90
2023-02-12T19:34:19.851Z,66.00
2023-02-12T19:36:49.957Z,67.50
2023-02-12T19:39:21.729Z,57.00
2023-02-12T19:41:50.528Z,60.30
2023-02-12T19:44:24.595Z,61.80
2023-02-12T19:46:53.536Z,55.90
2023-02-12T19:49:24.783Z,60.40
2023-02-12T19:51:53.577Z,57.20
2023-02-12T19:54:23.328Z,57.00
2023-02-12T19:56:53.002Z,61.30
2023-02-12T19:59:23.026Z,60.30
2023-02-12T20:01:51.732Z,56.60
2023-02-12T20:04:23.821Z,59.10
2023-02-12T20:06:52.646Z,57.30
2023-02-12T20:09:22.827Z,56.50
2023-02-12T20:11:51.808Z,53.80
2023-02-12T20:14:22.740Z,58.80
2023-02-12T20:16:55.225Z,53.00
2023-02-12T20:19:26.495Z,53.80
2023-02-12T20:21:56.849Z,60.90
2023-02-12T20:24:31.027Z,58.10
2023-02-12T20:27:00.836Z,57.90
2023-02-12T20:29:33.000Z,57.00
2023-02-12T20:32:01.324Z,59.30
2023-02-12T20:34:30.417Z,56.90
2023-02-12T20:36:59.677Z,57.20
2023-02-12T20:39:27.691Z,60.40
2023-02-12T20:41:56.023Z,55.80
2023-02-12T20:44:24.418Z,56.80
2023-02-12T20:46:56.496Z,56.50
2023-02-12T20:49:26.210Z,58.50
2023-02-12T20:51:54.901Z,63.50
2023-02-12T20:54:23.070Z,66.30
2023-02-12T20:56:51.354Z,67.30
2023-02-12T20:59:20.505Z,65.10
2023-02-12T21:01:49.288Z,67.40
2023-02-12T21:04:19.717Z,67.90
2023-02-12T21:06:48.714Z,64.20
2023-02-12T21:09:20.736Z,62.20
2023-02-12T21:11:49.337Z,61.70
2023-02-12T21:14:22.215Z,68.40
2023-02-12T21:16:53.854Z,64.30
2023-02-12T21:19:22.669Z,64.40
2023-02-12T21:21:51.055Z,64.30
2023-02-12T21:24:24.330Z,62.20
2023-02-12T21:26:54.146Z,59.50
2023-02-12T21:29:23.866Z,68.30
2023-02-12T21:31:52.267Z,59.30
2023-02-12T21:34:22.743Z,65.50
2023-02-12T21:36:54.254Z,62.50
2023-02-12T21:39:27.539Z,60.10
2023-02-12T21:42:00.229Z,65.20
2023-02-12T21:44:29.845Z,61.40
2023-02-12T21:46:59.125Z,66.20
2023-02-12T21:49:28.476Z,63.80
2023-02-12T21:52:02.262Z,63.00
2023-02-12T21:54:30.973Z,66.00
2023-02-12T21:57:00.225Z,64.30
2023-02-12T21:59:31.499Z,65.70
2023-02-12T22:02:01.822Z,61.30
2023-02-12T22:04:29.954Z,58.80
2023-02-12T22:06:59.807Z,62.00
2023-02-12T22:09:27.964Z,65.10
2023-02-12T22:11:56.041Z,58.30
2023-02-12T22:14:24.013Z,58.80
2023-02-12T22:16:52.302Z,56.00
2023-02-12T22:19:20.331Z,56.80
2023-02-12T22:21:51.851Z,52.90
2023-02-12T22:24:20.620Z,53.70
2023-02-12T22:26:48.996Z,55.90
2023-02-12T22:29:17.489Z,53.60
2023-02-12T22:31:47.233Z,54.20
2023-02-12T22:34:18.918Z,55.40
2023-02-12T22:36:47.858Z,55.70
2023-02-12T22:39:17.746Z,56.30
2023-02-12T22:41:46.441Z,54.50
2023-02-12T22:44:16.442Z,58.60
2023-02-12T22:46:45.142Z,56.30
2023-02-12T22:49:13.977Z,58.50
2023-02-12T22:51:42.246Z,54.60
2023-02-12T22:54:15.918Z,53.00
2023-02-12T22:56:45.472Z,57.30
2023-02-12T22:59:13.734Z,49.80
2023-02-12T23:01:42.637Z,50.00
2023-02-12T23:04:18.826Z,55.00
2023-02-12T23:06:47.391Z,53.30
2023-02-12T23:09:18.946Z,55.00
2023-02-12T23:11:48.445Z,53.60
2023-02-12T23:14:17.060Z,55.80
2023-02-12T23:16:46.224Z,50.20
2023-02-12T23:19:15.131Z,53.90
2023-02-12T23:21:43.932Z,51.60
2023-02-12T23:24:14.234Z,54.10
2023-02-12T23:26:42.549Z,51.40
2023-02-12T23:29:11.053Z,54.20
2023-02-12T23:31:39.350Z,50.20
2023-02-12T23:34:07.604Z,49.30
2023-02-12T23:36:35.982Z,52.80
2023-02-12T23:39:06.213Z,50.40
2023-02-12T23:41:34.763Z,53.00
2023-02-12T23:44:03.094Z,49.20
2023-02-12T23:46:32.085Z,49.10
2023-02-12T23:49:00.055Z,46.50
2023-02-12T23:51:28.132Z,47.10
2023-02-12T23:53:56.520Z,49.70
2023-02-12T23:56:25.000Z,44.70
2023-02-12T23:58:55.762Z,48.10
